createdAt,value
2023-12-15T00:00:08.570Z,99.90
2023-12-15T00:02:36.922Z,99.90
2023-12-15T00:05:05.786Z,99.90
2023-12-15T00:07:34.433Z,99.90
2023-12-15T00:10:02.972Z,99.90
2023-12-15T00:12:32.797Z,99.90
2023-12-15T00:15:01.089Z,99.90
2023-12-15T00:17:28.403Z,99.90
2023-12-15T00:19:56.770Z,99.90
2023-12-15T00:22:25.143Z,99.90
2023-12-15T00:24:53.607Z,99.90
2023-12-15T00:27:21.947Z,99.90
2023-12-15T00:29:51.635Z,99.90
2023-12-15T00:32:20.315Z,99.90
2023-12-15T00:34:48.659Z,99.90
2023-12-15T00:37:17.014Z,99.90
2023-12-15T00:39:45.357Z,99.90
2023-12-15T00:42:13.721Z,99.90
2023-12-15T00:44:42.047Z,99.90
2023-12-15T00:47:11.799Z,99.90
2023-12-15T00:49:40.110Z,99.90
2023-12-15T00:52:08.537Z,99.90
2023-12-15T00:54:36.965Z,99.90
2023-12-15T00:57:05.745Z,99.90
2023-12-15T00:59:34.067Z,99.90
2023-12-15T01:02:02.580Z,99.90
2023-12-15T01:04:32.334Z,99.90
2023-12-15T01:07:00.623Z,99.90
2023-12-15T01:09:29.501Z,99.90
2023-12-15T01:11:57.833Z,99.90
2023-12-15T01:14:26.232Z,99.90
2023-12-15T01:16:54.641Z,99.90
2023-12-15T01:19:23.061Z,99.90
2023-12-15T01:21:52.789Z,99.90
2023-12-15T01:24:21.204Z,99.90
2023-12-15T01:26:49.523Z,99.90
2023-12-15T01:29:17.870Z,99.90
2023-12-15T01:31:46.280Z,99.90
2023-12-15T01:34:14.652Z,99.90
2023-12-15T01:36:43.111Z,99.90
2023-12-15T01:39:12.877Z,99.90
2023-12-15T01:41:41.241Z,99.90
2023-12-15T01:44:09.612Z,99.90
2023-12-15T01:46:37.946Z,99.90
2023-12-15T01:49:06.549Z,99.90
2023-12-15T01:51:34.995Z,99.90
2023-12-15T01:54:03.314Z,99.90
2023-12-15T01:56:33.074Z,99.90
2023-12-15T01:59:01.415Z,99.90
2023-12-15T02:01:29.858Z,99.90
2023-12-15T02:03:58.408Z,99.90
2023-12-15T02:06:26.819Z,99.90
2023-12-15T02:08:55.427Z,99.90
2023-12-15T02:11:23.821Z,99.90
2023-12-15T02:13:55.062Z,99.90
2023-12-15T02:16:23.345Z,99.90
2023-12-15T02:18:51.958Z,99.90
2023-12-15T02:21:20.332Z,99.90
2023-12-15T02:23:50.018Z,99.90
2023-12-15T02:26:18.385Z,99.90
2023-12-15T02:28:46.732Z,99.90
2023-12-15T02:31:15.522Z,99.90
2023-12-15T02:33:44.061Z,99.90
2023-12-15T02:36:20.650Z,99.90
2023-12-15T02:38:50.401Z,99.90
2023-12-15T02:41:19.019Z,99.90
2023-12-15T02:43:47.354Z,99.90
2023-12-15T02:46:15.681Z,99.90
2023-12-15T02:48:44.161Z,99.90
2023-12-15T02:51:12.905Z,99.90
2023-12-15T02:53:41.518Z,99.90
2023-12-15T02:56:11.918Z,99.90
2023-12-15T02:58:40.286Z,99.90
2023-12-15T03:01:08.605Z,99.90
2023-12-15T03:03:37.699Z,99.90
2023-12-15T03:06:06.436Z,99.90
2023-12-15T03:08:34.714Z,99.90
2023-12-15T03:11:04.165Z,99.90
2023-12-15T03:13:33.883Z,99.90
2023-12-15T03:16:06.422Z,99.90
2023-12-15T03:18:34.692Z,99.90
2023-12-15T03:21:03.327Z,99.90
2023-12-15T03:23:31.826Z,99.90
2023-12-15T03:26:00.334Z,99.90
2023-12-15T03:28:28.710Z,99.90
2023-12-15T03:30:59.205Z,99.90
2023-12-15T03:33:27.810Z,99.90
2023-12-15T03:35:56.187Z,99.90
2023-12-15T03:38:24.488Z,99.90
2023-12-15T03:40:52.864Z,99.90
2023-12-15T03:43:21.395Z,99.90
2023-12-15T03:45:49.807Z,99.90
2023-12-15T03:48:19.567Z,99.90
2023-12-15T03:50:48.504Z,99.90
2023-12-15T03:53:16.798Z,99.90
2023-12-15T03:55:46.091Z,99.90
2023-12-15T03:58:14.424Z,99.90
2023-12-15T04:00:42.751Z,99.90
2023-12-15T04:03:11.195Z,99.90
2023-12-15T04:05:40.977Z,99.90
2023-12-15T04:08:09.466Z,99.90
2023-12-15T04:10:37.847Z,99.90
2023-12-15T04:13:06.258Z,99.90
2023-12-15T04:15:34.675Z,99.90
2023-12-15T04:18:05.971Z,99.90
2023-12-15T04:20:34.507Z,99.90
2023-12-15T04:23:04.239Z,99.90
2023-12-15T04:25:33.061Z,99.90
2023-12-15T04:28:01.647Z,99.90
2023-12-15T04:30:30.054Z,99.90
2023-12-15T04:32:58.491Z,99.90
2023-12-15T04:35:27.010Z,99.90
2023-12-15T04:37:55.380Z,99.90
2023-12-15T04:40:25.486Z,99.90
2023-12-15T04:42:53.769Z,99.90
2023-12-15T04:45:23.894Z,99.90
2023-12-15T04:47:53.268Z,99.90
2023-12-15T04:50:22.416Z,99.90
2023-12-15T04:52:50.775Z,99.90
2023-12-15T04:55:19.350Z,99.90
2023-12-15T04:57:49.986Z,99.90
2023-12-15T05:00:19.131Z,99.90
2023-12-15T05:02:48.542Z,99.90
2023-12-15T05:05:17.425Z,99.90
2023-12-15T05:07:45.789Z,99.90
2023-12-15T05:10:14.194Z,99.90
2023-12-15T05:12:42.613Z,99.90
2023-12-15T05:15:12.636Z,99.90
2023-12-15T05:17:41.196Z,99.90
2023-12-15T05:20:10.854Z,99.90
2023-12-15T05:22:39.190Z,99.90
2023-12-15T05:25:08.051Z,99.90
2023-12-15T05:27:36.727Z,99.90
2023-12-15T05:30:05.863Z,99.90
2023-12-15T05:32:35.693Z,99.90
2023-12-15T05:35:04.933Z,99.90
2023-12-15T05:37:33.483Z,99.90
2023-12-15T05:40:01.898Z,99.90
2023-12-15T05:42:30.255Z,99.90
2023-12-15T05:44:58.552Z,99.90
2023-12-15T05:47:26.982Z,99.90
2023-12-15T05:49:56.983Z,99.90
2023-12-15T05:52:26.523Z,99.90
2023-12-15T05:54:55.018Z,99.90
2023-12-15T05:57:23.282Z,99.90
2023-12-15T05:59:51.662Z,99.90
2023-12-15T06:02:19.972Z,99.90
2023-12-15T06:04:48.347Z,99.90
2023-12-15T06:07:18.199Z,99.90
2023-12-15T06:09:46.493Z,99.90
2023-12-15T06:12:14.917Z,99.90
2023-12-15T06:14:43.256Z,99.90
2023-12-15T06:17:11.796Z,99.90
2023-12-15T06:19:42.159Z,99.90
2023-12-15T06:22:10.581Z,99.90
2023-12-15T06:24:40.280Z,99.90
2023-12-15T06:27:08.597Z,99.90
2023-12-15T06:29:36.952Z,99.90
2023-12-15T06:32:05.847Z,99.90
2023-12-15T06:34:34.402Z,99.90
2023-12-15T06:37:02.771Z,99.90
2023-12-15T06:39:31.641Z,99.90
2023-12-15T06:42:04.184Z,99.90
2023-12-15T06:44:32.996Z,99.90
2023-12-15T06:47:01.428Z,99.90
2023-12-15T06:49:32.625Z,99.90
2023-12-15T06:52:01.341Z,99.90
2023-12-15T06:54:29.659Z,99.90
2023-12-15T06:56:58.110Z,99.90
2023-12-15T06:59:27.804Z,99.90
2023-12-15T07:01:56.215Z,99.90
2023-12-15T07:04:24.613Z,99.90
2023-12-15T07:06:54.261Z,99.90
2023-12-15T07:09:23.289Z,99.90
2023-12-15T07:11:51.595Z,99.90
2023-12-15T07:14:19.930Z,99.90
2023-12-15T07:16:50.466Z,99.90
2023-12-15T07:19:19.243Z,99.90
2023-12-15T07:21:47.554Z,99.90
2023-12-15T07:24:16.421Z,99.90
2023-12-15T07:26:44.857Z,99.90
2023-12-15T07:29:13.248Z,99.90
2023-12-15T07:31:41.572Z,99.90
2023-12-15T07:34:11.404Z,99.90
2023-12-15T07:36:39.870Z,99.90
2023-12-15T07:39:08.313Z,99.90
2023-12-15T07:41:40.010Z,99.90
2023-12-15T07:44:09.013Z,99.90
2023-12-15T07:46:37.410Z,99.90
2023-12-15T07:49:06.829Z,99.90
2023-12-15T07:51:36.718Z,99.90
2023-12-15T07:54:05.178Z,99.90
2023-12-15T07:56:34.405Z,99.90
2023-12-15T07:59:02.848Z,99.90
2023-12-15T08:01:31.273Z,99.90
2023-12-15T08:03:59.585Z,99.90
2023-12-15T08:06:28.013Z,99.90
2023-12-15T08:08:57.730Z,99.90
2023-12-15T08:11:26.373Z,99.90
2023-12-15T08:13:54.810Z,99.90
2023-12-15T08:16:23.159Z,99.90
2023-12-15T08:18:51.681Z,99.90
2023-12-15T08:21:20.005Z,99.90
2023-12-15T08:23:48.358Z,99.90
2023-12-15T08:26:24.436Z,99.90
2023-12-15T08:28:54.962Z,99.90
2023-12-15T08:31:23.329Z,99.90
2023-12-15T08:33:52.041Z,99.90
2023-12-15T08:36:21.643Z,99.90
2023-12-15T08:38:49.969Z,99.90
2023-12-15T08:41:18.433Z,99.90
2023-12-15T08:43:48.192Z,99.90
2023-12-15T08:46:16.555Z,99.90
2023-12-15T08:48:44.903Z,99.90
2023-12-15T08:51:13.321Z,99.90
2023-12-15T08:53:41.673Z,99.90
2023-12-15T08:56:10.697Z,99.90
2023-12-15T08:58:39.017Z,99.90
2023-12-15T09:01:08.881Z,99.90
2023-12-15T09:03:38.204Z,99.90
2023-12-15T09:06:25.472Z,99.90
2023-12-15T09:08:57.342Z,99.90
2023-12-15T09:11:25.899Z,99.90
2023-12-15T09:13:54.320Z,99.90
2023-12-15T09:16:24.229Z,99.90
2023-12-15T09:18:52.964Z,99.90
2023-12-15T09:21:21.645Z,99.90
2023-12-15T09:23:49.947Z,99.90
2023-12-15T09:26:18.451Z,99.90
2023-12-15T09:28:46.816Z,99.90
2023-12-15T09:31:15.444Z,99.90
2023-12-15T09:33:45.271Z,99.90
2023-12-15T09:36:13.899Z,99.90
2023-12-15T09:38:42.249Z,99.90
2023-12-15T09:41:10.690Z,99.90
2023-12-15T09:43:39.101Z,99.90
2023-12-15T09:46:08.804Z,99.90
2023-12-15T09:48:37.847Z,99.90
2023-12-15T09:51:11.113Z,99.90
2023-12-15T09:53:40.880Z,99.90
2023-12-15T09:56:10.251Z,99.90
2023-12-15T09:58:39.900Z,99.90
2023-12-15T10:01:08.540Z,99.90
2023-12-15T10:03:36.871Z,99.90
2023-12-15T10:06:05.465Z,99.90
2023-12-15T10:08:54.372Z,99.90
2023-12-15T10:11:33.735Z,99.90
2023-12-15T10:14:06.622Z,99.00
2023-12-15T10:16:35.217Z,98.70
2023-12-15T10:19:05.110Z,98.20
2023-12-15T10:21:34.105Z,97.70
2023-12-15T10:24:19.833Z,97.50
2023-12-15T10:26:48.496Z,97.20
2023-12-15T10:29:17.104Z,95.90
2023-12-15T10:31:45.477Z,95.70
2023-12-15T10:34:14.188Z,95.50
2023-12-15T10:36:46.271Z,95.00
2023-12-15T10:39:18.529Z,94.90
2023-12-15T10:41:47.582Z,94.30
2023-12-15T10:44:16.536Z,94.30
2023-12-15T10:46:48.517Z,94.10
2023-12-15T10:49:18.780Z,94.40
2023-12-15T10:51:49.433Z,93.90
2023-12-15T10:54:20.246Z,93.40
2023-12-15T10:56:52.860Z,93.50
2023-12-15T10:59:21.431Z,92.90
2023-12-15T11:01:50.620Z,93.00
2023-12-15T11:04:21.994Z,93.30
2023-12-15T11:06:51.522Z,93.50
2023-12-15T11:12:25.056Z,93.40
2023-12-15T11:14:54.733Z,93.10
2023-12-15T11:17:23.790Z,93.10
2023-12-15T11:19:53.726Z,92.70
2023-12-15T11:22:23.679Z,93.10
2023-12-15T11:24:53.387Z,93.10
2023-12-15T11:27:22.693Z,93.20
2023-12-15T11:29:51.066Z,93.20
2023-12-15T11:32:38.331Z,92.80
2023-12-15T11:35:27.890Z,92.80
2023-12-15T11:37:58.962Z,92.70
2023-12-15T11:40:30.994Z,92.50
2023-12-15T11:42:59.332Z,92.40
2023-12-15T11:45:28.538Z,92.10
2023-12-15T11:47:57.028Z,92.00
2023-12-15T11:50:25.946Z,92.00
2023-12-15T11:52:56.777Z,91.60
2023-12-15T11:55:25.321Z,91.50
2023-12-15T11:57:55.421Z,91.30
2023-12-15T12:00:23.890Z,90.90
2023-12-15T12:02:52.154Z,91.10
2023-12-15T12:05:20.658Z,91.20
2023-12-15T12:07:50.082Z,90.70
2023-12-15T12:10:18.892Z,90.50
2023-12-15T12:12:47.873Z,90.40
2023-12-15T12:15:17.709Z,90.40
2023-12-15T12:17:46.158Z,90.10
2023-12-15T12:20:15.019Z,90.00
2023-12-15T12:22:43.779Z,90.00
2023-12-15T12:25:14.501Z,88.90
2023-12-15T12:27:43.382Z,89.90
2023-12-15T12:30:13.681Z,89.50
2023-12-15T12:32:45.105Z,88.90
2023-12-15T12:35:13.689Z,90.10
2023-12-15T12:37:42.089Z,90.30
2023-12-15T12:40:12.715Z,90.10
2023-12-15T12:42:41.355Z,89.70
2023-12-15T12:45:11.505Z,89.10
2023-12-15T12:47:42.845Z,89.10
2023-12-15T12:50:13.091Z,87.90
2023-12-15T12:52:41.419Z,88.50
2023-12-15T12:55:10.124Z,88.50
2023-12-15T12:57:38.368Z,88.30
2023-12-15T13:00:09.127Z,88.60
2023-12-15T13:02:39.027Z,87.70
2023-12-15T13:05:09.572Z,87.10
2023-12-15T13:07:39.386Z,87.70
2023-12-15T13:10:12.983Z,86.70
2023-12-15T13:12:45.998Z,87.60
2023-12-15T13:15:15.063Z,87.60
2023-12-15T13:17:43.616Z,86.90
2023-12-15T13:20:12.566Z,86.50
2023-12-15T13:22:48.023Z,88.00
2023-12-15T13:25:17.550Z,88.50
2023-12-15T13:27:45.951Z,87.90
2023-12-15T13:30:15.254Z,88.10
2023-12-15T13:32:44.132Z,87.30
2023-12-15T13:35:13.135Z,86.30
2023-12-15T13:37:43.052Z,86.80
2023-12-15T13:40:12.972Z,85.60
2023-12-15T13:42:41.610Z,84.70
2023-12-15T13:45:11.310Z,85.30
2023-12-15T13:47:39.695Z,86.10
2023-12-15T13:50:08.811Z,85.10
2023-12-15T13:52:37.891Z,85.40
2023-12-15T13:55:09.102Z,84.80
2023-12-15T13:57:37.426Z,84.70
2023-12-15T14:00:09.753Z,86.00
2023-12-15T14:02:40.626Z,86.30
2023-12-15T14:05:09.777Z,87.30
2023-12-15T14:07:38.327Z,87.30
2023-12-15T14:10:12.054Z,87.00
2023-12-15T14:12:41.990Z,86.30
2023-12-15T14:15:12.000Z,84.70
2023-12-15T14:17:41.185Z,86.10
2023-12-15T14:20:10.819Z,85.40
2023-12-15T14:22:39.491Z,85.80
2023-12-15T14:25:10.707Z,85.50
2023-12-15T14:27:40.386Z,86.00
2023-12-15T14:30:12.068Z,84.30
2023-12-15T14:32:40.899Z,84.50
2023-12-15T14:35:11.282Z,84.00
2023-12-15T14:37:39.889Z,83.00
2023-12-15T14:40:13.632Z,82.20
2023-12-15T14:42:42.016Z,81.90
2023-12-15T14:45:10.842Z,81.10
2023-12-15T14:47:40.463Z,81.10
2023-12-15T14:50:09.935Z,81.30
2023-12-15T14:52:38.434Z,82.00
2023-12-15T14:55:08.149Z,81.90
2023-12-15T14:57:38.034Z,81.80
2023-12-15T15:00:08.072Z,81.30
2023-12-15T15:02:36.725Z,81.10
2023-12-15T15:05:07.681Z,81.20
2023-12-15T15:07:37.235Z,81.10
2023-12-15T15:10:06.034Z,80.60
2023-12-15T15:12:34.718Z,80.70
2023-12-15T15:15:04.586Z,81.90
2023-12-15T15:17:33.048Z,81.50
2023-12-15T15:20:01.431Z,81.60
2023-12-15T15:22:30.115Z,82.50
2023-12-15T15:25:00.316Z,82.50
2023-12-15T15:27:30.411Z,82.70
2023-12-15T15:29:58.672Z,82.00
2023-12-15T15:32:28.466Z,81.80
2023-12-15T15:35:05.199Z,83.10
2023-12-15T15:37:34.826Z,84.70
2023-12-15T15:40:03.723Z,85.00
2023-12-15T15:42:32.062Z,86.60
2023-12-15T15:45:00.355Z,88.20
2023-12-15T15:47:30.979Z,89.30
2023-12-15T15:49:59.466Z,89.10
2023-12-15T15:52:27.993Z,88.90
2023-12-15T15:54:56.402Z,89.00
2023-12-15T15:57:24.842Z,89.10
2023-12-15T15:59:53.141Z,90.10
2023-12-15T16:02:21.588Z,90.10
2023-12-15T16:04:51.596Z,90.20
2023-12-15T16:07:20.454Z,90.30
2023-12-15T16:09:48.947Z,90.80
2023-12-15T16:12:18.334Z,91.10
2023-12-15T16:14:46.727Z,91.30
2023-12-15T16:17:15.157Z,91.40
2023-12-15T16:19:43.594Z,91.30
2023-12-15T16:22:13.376Z,91.10
2023-12-15T16:24:41.733Z,91.00
2023-12-15T16:27:10.077Z,91.20
2023-12-15T16:29:38.385Z,91.60
2023-12-15T16:32:07.672Z,91.20
2023-12-15T16:34:36.282Z,91.40
2023-12-15T16:37:04.561Z,91.30
2023-12-15T16:39:34.866Z,91.20
2023-12-15T16:42:03.250Z,91.10
2023-12-15T16:44:31.624Z,91.10
2023-12-15T16:46:59.983Z,91.20
2023-12-15T16:49:28.383Z,91.50
2023-12-15T16:51:57.313Z,91.60
2023-12-15T16:54:25.956Z,91.80
2023-12-15T16:56:55.843Z,91.50
2023-12-15T16:59:24.450Z,91.50
2023-12-15T17:01:53.058Z,91.40
2023-12-15T17:04:21.640Z,91.40
2023-12-15T17:06:50.329Z,91.60
2023-12-15T17:09:19.126Z,91.70
2023-12-15T17:11:47.859Z,91.70
2023-12-15T17:14:17.651Z,91.60
2023-12-15T17:16:45.967Z,91.60
2023-12-15T17:19:14.421Z,91.70
2023-12-15T17:21:42.953Z,91.80
2023-12-15T17:24:11.488Z,91.80
2023-12-15T17:26:39.824Z,91.80
2023-12-15T17:29:08.327Z,91.70
2023-12-15T17:31:37.998Z,91.70
2023-12-15T17:34:07.233Z,91.70
2023-12-15T17:36:39.924Z,91.80
2023-12-15T17:39:09.110Z,91.90
2023-12-15T17:41:37.514Z,91.90
2023-12-15T17:44:06.907Z,92.40
2023-12-15T17:46:35.408Z,92.00
2023-12-15T17:49:07.062Z,92.30
2023-12-15T17:51:37.292Z,91.80
2023-12-15T17:54:05.935Z,91.70
2023-12-15T17:56:34.235Z,91.80
2023-12-15T17:59:02.553Z,92.10
2023-12-15T18:01:31.050Z,92.20
2023-12-15T18:03:59.864Z,92.40
2023-12-15T18:06:29.653Z,92.40
2023-12-15T18:08:58.144Z,92.50
2023-12-15T18:11:28.710Z,92.60
2023-12-15T18:13:57.745Z,92.40
2023-12-15T18:16:27.181Z,92.30
2023-12-15T18:18:56.458Z,92.20
2023-12-15T18:21:26.430Z,92.40
2023-12-15T18:23:57.086Z,92.50
2023-12-15T18:26:25.720Z,92.50
2023-12-15T18:28:54.112Z,92.50
2023-12-15T18:31:22.920Z,92.50
2023-12-15T18:33:51.605Z,92.40
2023-12-15T18:36:20.849Z,92.50
2023-12-15T18:38:50.314Z,92.40
2023-12-15T18:41:23.246Z,92.20
2023-12-15T18:43:52.391Z,92.20
2023-12-15T18:46:20.966Z,92.40
2023-12-15T18:48:49.457Z,92.40
2023-12-15T18:51:19.479Z,92.30
2023-12-15T18:53:48.347Z,92.70
2023-12-15T18:56:21.869Z,92.80
2023-12-15T18:58:51.820Z,92.60
2023-12-15T19:01:21.425Z,92.80
2023-12-15T19:03:50.105Z,92.80
2023-12-15T19:06:23.566Z,92.70
2023-12-15T19:08:52.175Z,92.50
2023-12-15T19:11:28.405Z,92.70
2023-12-15T19:13:57.615Z,93.00
2023-12-15T19:16:26.721Z,93.20
2023-12-15T19:18:55.591Z,93.30
2023-12-15T19:21:24.142Z,93.50
2023-12-15T19:23:57.683Z,93.40
2023-12-15T19:26:28.458Z,93.20
2023-12-15T19:28:58.810Z,93.00
2023-12-15T19:31:27.140Z,93.20
2023-12-15T19:33:56.721Z,93.20
2023-12-15T19:36:25.410Z,93.10
2023-12-15T19:38:53.703Z,93.10
2023-12-15T19:41:23.218Z,93.20
2023-12-15T19:43:55.317Z,93.20
2023-12-15T19:46:24.802Z,93.10
2023-12-15T19:48:54.081Z,93.30
2023-12-15T19:51:23.471Z,93.10
2023-12-15T19:53:52.195Z,93.10
2023-12-15T19:56:23.986Z,93.10
2023-12-15T19:58:54.553Z,93.10
2023-12-15T20:01:27.757Z,92.30
2023-12-15T20:03:56.783Z,92.40
2023-12-15T20:06:26.007Z,92.70
2023-12-15T20:08:54.402Z,93.00
2023-12-15T20:11:22.825Z,93.30
2023-12-15T20:14:06.197Z,93.40
2023-12-15T20:16:37.897Z,93.70
2023-12-15T20:19:15.629Z,93.70
2023-12-15T20:21:43.942Z,93.50
2023-12-15T20:24:12.833Z,93.70
2023-12-15T20:26:43.828Z,94.10
2023-12-15T20:29:12.338Z,94.10
2023-12-15T20:31:45.799Z,94.10
2023-12-15T20:34:16.097Z,94.30
2023-12-15T20:36:44.647Z,94.30
2023-12-15T20:39:16.602Z,94.10
2023-12-15T20:41:45.238Z,94.30
2023-12-15T20:44:15.715Z,94.50
2023-12-15T20:46:46.862Z,94.40
2023-12-15T20:49:15.608Z,94.70
2023-12-15T20:51:44.310Z,94.60
2023-12-15T20:54:13.919Z,94.70
2023-12-15T20:56:43.631Z,94.40
2023-12-15T20:59:12.344Z,94.40
2023-12-15T21:01:40.763Z,94.60
2023-12-15T21:04:12.067Z,94.50
2023-12-15T21:06:40.640Z,94.00
2023-12-15T21:09:09.050Z,93.50
2023-12-15T21:11:37.489Z,92.90
2023-12-15T21:14:05.934Z,93.10
2023-12-15T21:16:35.481Z,93.40
2023-12-15T21:19:04.054Z,92.90
2023-12-15T21:21:35.827Z,93.10
2023-12-15T21:24:04.921Z,92.80
2023-12-15T21:26:33.554Z,92.20
2023-12-15T21:29:01.893Z,92.20
2023-12-15T21:31:30.398Z,92.00
2023-12-15T21:33:58.812Z,92.00
2023-12-15T21:36:27.144Z,91.60
2023-12-15T21:38:56.892Z,91.70
2023-12-15T21:41:25.221Z,91.90
2023-12-15T21:43:54.046Z,92.50
2023-12-15T21:46:22.571Z,92.50
2023-12-15T21:48:52.471Z,91.60
2023-12-15T21:51:22.987Z,91.30
2023-12-15T21:53:51.244Z,91.50
2023-12-15T21:56:20.934Z,92.00
2023-12-15T21:58:51.352Z,92.00
2023-12-15T22:01:19.861Z,92.30
2023-12-15T22:03:49.310Z,92.90
2023-12-15T22:06:17.914Z,92.50
2023-12-15T22:08:46.245Z,92.50
2023-12-15T22:11:15.666Z,92.20
2023-12-15T22:13:47.090Z,92.60
2023-12-15T22:16:15.472Z,92.90
2023-12-15T22:18:44.201Z,92.60
2023-12-15T22:21:14.091Z,91.80
2023-12-15T22:23:43.453Z,90.90
2023-12-15T22:26:13.202Z,91.10
2023-12-15T22:28:42.641Z,91.20
2023-12-15T22:31:12.489Z,91.10
2023-12-15T22:33:41.046Z,91.50
2023-12-15T22:36:09.995Z,91.50
2023-12-15T22:38:40.085Z,90.00
2023-12-15T22:41:14.301Z,89.80
2023-12-15T22:43:44.038Z,90.20
2023-12-15T22:46:13.864Z,90.00
2023-12-15T22:48:44.088Z,90.60
2023-12-15T22:51:12.608Z,91.50
2023-12-15T22:53:40.933Z,91.10
2023-12-15T22:56:10.727Z,90.20
2023-12-15T22:58:39.169Z,90.00
2023-12-15T23:01:07.791Z,89.50
2023-12-15T23:03:38.747Z,90.60
2023-12-15T23:06:07.910Z,91.70
2023-12-15T23:08:36.236Z,92.30
2023-12-15T23:11:04.813Z,91.60
2023-12-15T23:13:34.980Z,92.00
2023-12-15T23:16:03.364Z,92.50
2023-12-15T23:18:32.029Z,92.50
2023-12-15T23:21:07.106Z,92.50
2023-12-15T23:23:40.872Z,92.50
2023-12-15T23:26:10.317Z,92.90
2023-12-15T23:28:38.809Z,92.10
2023-12-15T23:31:07.320Z,92.20
2023-12-15T23:33:36.586Z,92.20
2023-12-15T23:36:12.772Z,92.00
2023-12-15T23:38:41.164Z,91.80
2023-12-15T23:41:10.260Z,92.00
2023-12-15T23:43:38.610Z,92.40
2023-12-15T23:46:07.021Z,92.50
2023-12-15T23:48:36.171Z,92.50
2023-12-15T23:51:06.398Z,92.70
2023-12-15T23:53:34.727Z,92.70
2023-12-15T23:56:03.640Z,92.70
2023-12-15T23:58:34.055Z,92.70
